createdAt,value
2022-11-26T00:00:06.116Z,9.80
2022-11-26T00:05:15.901Z,10.10
2022-11-26T00:10:22.606Z,11.85
2022-11-26T00:15:28.012Z,12.25
2022-11-26T00:20:35.552Z,11.13
2022-11-26T00:25:42.367Z,10.52
2022-11-26T00:30:47.108Z,10.55
2022-11-26T00:35:57.076Z,9.95
2022-11-26T00:41:01.993Z,10.80
2022-11-26T00:46:06.790Z,11.02
2022-11-26T00:51:16.554Z,16.67
2022-11-26T00:56:22.438Z,16.40
2022-11-26T01:01:29.039Z,19.63
2022-11-26T01:06:37.448Z,21.50
2022-11-26T01:11:42.157Z,14.55
2022-11-26T01:16:47.608Z,10.50
2022-11-26T01:21:54.998Z,10.93
2022-11-26T01:26:59.671Z,10.85
2022-11-26T01:32:04.670Z,10.18
2022-11-26T01:37:17.024Z,10.40
2022-11-26T01:42:27.637Z,9.85
2022-11-26T01:47:33.506Z,11.63
2022-11-26T01:52:40.936Z,11.13
2022-11-26T01:57:45.829Z,11.07
2022-11-26T02:02:50.515Z,10.35
2022-11-26T02:07:58.405Z,11.25
2022-11-26T02:13:03.180Z,11.65
2022-11-26T02:18:09.563Z,11.23
2022-11-26T02:23:30.969Z,11.10
2022-11-26T02:28:44.592Z,11.45
2022-11-26T02:33:55.367Z,11.20
2022-11-26T02:39:00.091Z,37.08
2022-11-26T02:44:04.825Z,17.95
2022-11-26T02:49:12.745Z,11.90
2022-11-26T02:54:18.136Z,12.43
2022-11-26T02:59:23.277Z,14.27
2022-11-26T03:04:32.367Z,12.27
2022-11-26T03:09:44.640Z,11.25
2022-11-26T03:14:49.540Z,10.30
2022-11-26T03:19:56.984Z,12.07
2022-11-26T03:25:01.679Z,10.55
2022-11-26T03:30:07.194Z,10.65
2022-11-26T03:35:14.809Z,10.02
2022-11-26T03:40:19.770Z,8.52
2022-11-26T03:45:24.498Z,7.72
2022-11-26T03:50:31.898Z,7.13
2022-11-26T03:55:36.671Z,8.27
2022-11-26T04:00:41.390Z,7.55
2022-11-26T04:05:48.727Z,8.32
2022-11-26T04:10:53.456Z,7.30
2022-11-26T04:15:58.298Z,8.45
2022-11-26T04:21:05.663Z,7.90
2022-11-26T04:26:10.391Z,8.90
2022-11-26T04:31:15.360Z,7.85
2022-11-26T04:36:22.906Z,9.20
2022-11-26T04:41:27.706Z,12.38
2022-11-26T04:46:32.429Z,9.77
2022-11-26T04:51:39.755Z,12.15
2022-11-26T04:56:44.456Z,14.00
2022-11-26T05:01:49.159Z,13.63
2022-11-26T05:06:56.516Z,12.68
2022-11-26T05:12:01.238Z,9.18
2022-11-26T05:17:05.965Z,8.95
2022-11-26T05:22:13.264Z,8.32
2022-11-26T05:27:18.008Z,8.40
2022-11-26T05:32:22.763Z,8.52
2022-11-26T05:37:30.108Z,9.43
2022-11-26T05:42:34.891Z,10.25
2022-11-26T05:47:39.672Z,14.68
2022-11-26T05:52:47.047Z,9.20
2022-11-26T05:57:51.842Z,7.65
2022-11-26T06:02:56.651Z,8.05
2022-11-26T06:08:04.125Z,6.97
2022-11-26T06:13:08.916Z,8.70
2022-11-26T06:18:13.841Z,8.48
2022-11-26T06:23:22.416Z,8.23
2022-11-26T06:28:27.403Z,8.77
2022-11-26T06:33:32.191Z,10.55
2022-11-26T06:38:39.588Z,7.80
2022-11-26T06:43:44.545Z,9.38
2022-11-26T06:48:49.301Z,10.05
2022-11-26T07:42:54.573Z,17.70
2022-11-26T08:10:41.572Z,16.00
2022-11-26T08:15:46.374Z,15.73
2022-11-26T08:20:57.459Z,30.77
2022-11-26T08:26:30.706Z,18.20
2022-11-26T08:31:47.273Z,17.20
2022-11-26T08:36:54.670Z,13.95
2022-11-26T08:42:02.808Z,8.00
2022-11-26T08:47:07.678Z,9.18
2022-11-26T08:52:12.551Z,7.65
2022-11-26T08:57:20.086Z,9.70
2022-11-26T09:02:24.936Z,12.68
2022-11-26T09:07:31.004Z,7.18
2022-11-26T09:12:38.571Z,8.68
2022-11-26T09:17:43.494Z,8.65
2022-11-26T09:22:48.626Z,10.85
2022-11-26T09:27:56.729Z,12.75
2022-11-26T09:33:01.581Z,14.13
2022-11-26T09:38:06.391Z,16.33
2022-11-26T09:43:18.617Z,14.70
2022-11-26T10:16:13.472Z,29.02
2022-11-26T10:21:59.957Z,34.95
2022-11-26T10:27:27.052Z,22.77
2022-11-26T10:32:41.720Z,26.05
2022-11-26T10:37:46.792Z,84.82
2022-11-26T10:43:13.893Z,29.20
2022-11-26T10:48:23.426Z,23.75
2022-11-26T10:53:28.912Z,19.67
2022-11-26T10:58:35.558Z,22.75
2022-11-26T11:09:26.046Z,22.58
2022-11-26T11:14:31.286Z,21.63
2022-11-26T11:19:39.549Z,21.00
2022-11-26T11:24:48.630Z,20.33
2022-11-26T11:29:53.884Z,23.67
2022-11-26T11:35:14.516Z,20.30
2022-11-26T11:40:25.441Z,27.88
2022-11-26T11:45:36.443Z,31.60
2022-11-26T12:45:26.340Z,52.83
2022-11-26T12:56:29.100Z,35.97
2022-11-26T13:01:36.735Z,34.65
2022-11-26T13:06:53.686Z,31.27
2022-11-26T13:12:03.940Z,27.33
2022-11-26T13:17:13.239Z,24.35
2022-11-26T13:22:31.632Z,26.08
2022-11-26T13:27:43.400Z,26.77
2022-11-26T13:33:10.389Z,24.35
2022-11-26T13:59:52.370Z,29.38
2022-11-26T14:04:57.244Z,24.45
2022-11-26T14:10:03.105Z,28.38
2022-11-26T14:15:26.509Z,26.65
2022-11-26T14:20:33.993Z,21.85
2022-11-26T14:25:40.920Z,20.52
2022-11-26T14:30:45.608Z,21.88
2022-11-26T14:35:59.573Z,25.83
2022-11-26T14:41:04.652Z,33.78
2022-11-26T14:46:14.393Z,35.80
2022-11-26T14:51:25.868Z,41.80
2022-11-26T14:56:32.234Z,39.13
2022-11-26T15:01:37.179Z,47.15
2022-11-26T15:06:47.489Z,48.85
2022-11-26T16:06:32.247Z,37.90
2022-11-26T16:11:37.426Z,34.90
2022-11-26T16:16:42.882Z,32.63
2022-11-26T16:21:54.207Z,35.47
2022-11-26T16:27:01.125Z,37.88
2022-11-26T16:32:06.353Z,43.33
2022-11-26T16:37:22.131Z,60.10
2022-11-26T16:42:27.434Z,90.53
2022-11-26T16:47:33.759Z,87.40
2022-11-26T16:58:29.679Z,37.08
2022-11-26T17:03:36.025Z,37.55
2022-11-26T17:08:45.052Z,82.55
2022-11-26T17:13:55.638Z,60.45
2022-11-26T18:07:23.001Z,108.10
2022-11-26T18:17:51.463Z,60.45
2022-11-26T18:22:57.423Z,89.43
2022-11-26T18:28:02.364Z,69.47
2022-11-26T18:33:09.933Z,61.50
2022-11-26T18:38:14.648Z,54.30
2022-11-26T18:43:19.289Z,57.95
2022-11-26T18:48:26.643Z,61.30
2022-11-26T18:53:32.015Z,70.40
2022-11-26T18:58:37.411Z,64.40
2022-11-26T19:03:44.779Z,62.25
2022-11-26T19:08:50.006Z,58.25
2022-11-26T19:13:54.971Z,55.42
2022-11-26T19:19:03.850Z,53.33
2022-11-26T19:24:09.955Z,43.15
2022-11-26T19:29:15.530Z,47.83
2022-11-26T19:34:22.846Z,43.13
2022-11-26T19:39:28.085Z,40.92
2022-11-26T19:44:32.812Z,40.78
2022-11-26T19:49:42.163Z,41.72
2022-11-26T19:54:46.867Z,42.38
2022-11-26T19:59:51.539Z,43.03
2022-11-26T20:04:59.307Z,49.33
2022-11-26T20:10:03.983Z,53.70
2022-11-26T20:15:10.435Z,55.28
2022-11-26T20:20:18.540Z,59.30
2022-11-26T20:25:23.767Z,53.10
2022-11-26T20:30:28.547Z,51.28
2022-11-26T20:35:35.901Z,43.47
2022-11-26T20:40:41.819Z,44.58
2022-11-26T20:45:47.232Z,44.38
2022-11-26T20:50:55.121Z,40.10
2022-11-26T20:56:00.100Z,42.40
2022-11-26T21:01:05.197Z,42.00
2022-11-26T21:06:12.701Z,43.28
2022-11-26T21:11:18.605Z,43.72
2022-11-26T21:16:23.507Z,42.67
2022-11-26T21:21:31.541Z,45.33
2022-11-26T21:26:37.999Z,44.08
2022-11-26T21:31:42.749Z,50.30
2022-11-26T21:36:50.250Z,56.83
2022-11-26T21:41:54.909Z,54.65
2022-11-26T21:46:59.791Z,51.03
2022-11-26T21:52:07.235Z,46.53
2022-11-26T21:57:12.004Z,47.10
2022-11-26T22:02:16.873Z,50.90
2022-11-26T22:07:24.211Z,47.85
2022-11-26T22:12:29.520Z,52.72
2022-11-26T22:17:34.183Z,86.03
2022-11-26T22:22:41.483Z,59.03
2022-11-26T22:27:46.223Z,52.42
2022-11-26T22:32:50.846Z,59.15
2022-11-26T22:37:58.526Z,53.05
2022-11-26T22:43:04.369Z,61.78
2022-11-26T22:48:10.905Z,54.80
2022-11-26T22:53:19.079Z,54.03
2022-11-26T22:58:23.861Z,50.50
2022-11-26T23:03:29.385Z,46.13
2022-11-26T23:08:36.964Z,43.70
2022-11-26T23:13:43.079Z,44.10
2022-11-26T23:18:47.890Z,44.85
2022-11-26T23:23:55.387Z,49.50
2022-11-26T23:29:00.859Z,58.53
2022-11-26T23:34:06.003Z,63.63
2022-11-26T23:39:14.249Z,57.75
2022-11-26T23:44:18.968Z,49.10
2022-11-26T23:49:23.637Z,44.00
2022-11-26T23:54:30.974Z,64.70
2022-11-26T23:59:38.937Z,45.75
